E.r. Basel — A8XQ4 — position and weather

sailwx.info

Track history (hours):
 
Tides and Currents Weather Stations Pressure Air Temp Water Temp Dewpoint Dewpoint Depression Visibility Wind Speed Wind Dir Waves Ship Positions

E.r. Basel

Last reported at 2015-May-22 20:12 UTC. Time now 2015-Aug-03 10:41 UTC.
Position N 01°57' E 102°16'.
Warning: this ship's position is months out of date.

Length 187 m; draft 10.5 m.

Type: Cargo ship. MMSI: 636092149.

Date/timePositionNaut miles runAvg speedWind from/ knotsBaromVisibWave heightAir tempDewpointWater temp
2015-May-22 20:12N 01°57' E 102°16'710.5
2015-May-22 19:33N 01°54' E 102°22'1010.4
2015-May-22 18:33N 01°49' E 102°32'10 9.9
2015-May-22 17:33N 01°45' E 102°41'7510.3
2015-May-22 10:17N 01°10' E 103°47'811.0
2015-May-22 09:33N 01°14' E 103°55'3 2.8
2015-May-22 08:19N 01°17' E 103°56'0 0.0
2015-May-22 07:31N 01°17' E 103°56'0 0.0
2015-May-22 06:19N 01°17' E 103°56'0 0.0
2015-May-22 05:20N 01°17' E 103°56'0 0.0
2015-May-22 04:26N 01°17' E 103°56'0 0.0
2015-May-22 03:22N 01°17' E 103°56'0 0.0
2015-May-22 02:28N 01°17' E 103°56'0 0.1
2015-May-22 01:31N 01°17' E 103°56'0 0.0
2015-May-22 00:25N 01°17' E 103°56'0 0.0
2015-May-21 23:28N 01°17' E 103°56'0 0.0
2015-May-21 22:25N 01°17' E 103°56'0 0.1
2015-May-21 21:13N 01°17' E 103°56'0 0.1
2015-May-21 20:31N 01°17' E 103°56'3 3.2
2015-May-21 19:33N 01°16' E 103°59'7 6.6
2015-May-21 18:32N 01°16' E 104°05'9 8.7
2015-May-21 17:32N 01°18' E 104°14'  
2015-May-15 15:03N 22°25' E 119°20'37 9.9
2015-May-15 11:17N 22°58' E 119°39'48 8.1
2015-May-15 05:26N 23°44' E 119°50'20 9.8
2015-May-15 03:25N 24°03' E 119°54'5210.0
2015-May-14 22:17N 24°48' E 120°22'263 9.5
2015-May-13 18:33N 28°46' E 122°29'1510.1
2015-May-13 17:07N 28°59' E 122°36'710.6
2015-May-13 16:27N 29°06' E 122°39'910.3
2015-May-13 15:32N 29°14' E 122°43'10 9.9
2015-May-13 14:33N 29°24' E 122°47'10 9.7
2015-May-13 13:33N 29°32' E 122°51'35 8.2
2015-May-13 09:21N 30°05' E 123°06'15 8.1
2015-May-13 07:27N 30°20' E 123°09'16 8.6
2015-May-13 05:33N 30°36' E 123°12'9 9.5
2015-May-13 04:33N 30°46' E 123°13'10 9.5
2015-May-13 03:32N 30°55' E 123°13'9 9.3
2015-May-13 02:32N 31°05' E 123°13'9 9.1
2015-May-13 01:33N 31°14' E 123°14'9 9.2
2015-May-13 00:33N 31°23' E 123°14'9 8.9
2015-May-12 23:33N 31°32' E 123°14'9 9.1
2015-May-12 22:33N 31°41' E 123°14'9 8.8
2015-May-12 21:33N 31°50' E 123°14'9 9.2
2015-May-12 20:33N 31°59' E 123°15'  
Track history (hours):
 
Tides and Currents Weather Stations Pressure Air Temp Water Temp Dewpoint Dewpoint Depression Visibility Wind Speed Wind Dir Waves Ship Positions

E.r. Basel

Last reported at 2015-May-22 20:12 UTC. Time now 2015-Aug-03 10:41 UTC.
Position N 01°57' E 102°16'.
Warning: this ship's position is months out of date.

Length 187 m; draft 10.5 m.

Type: Cargo ship. MMSI: 636092149.

Date/timePositionNaut miles runAvg speedWind from/ knotsBaromVisibWave heightAir tempDewpointWater temp
2015-May-22 20:12N 01°57' E 102°16'710.5
2015-May-22 19:33N 01°54' E 102°22'1010.4
2015-May-22 18:33N 01°49' E 102°32'10 9.9
2015-May-22 17:33N 01°45' E 102°41'7510.3
2015-May-22 10:17N 01°10' E 103°47'811.0
2015-May-22 09:33N 01°14' E 103°55'3 2.8
2015-May-22 08:19N 01°17' E 103°56'0 0.0
2015-May-22 07:31N 01°17' E 103°56'0 0.0
2015-May-22 06:19N 01°17' E 103°56'0 0.0
2015-May-22 05:20N 01°17' E 103°56'0 0.0
2015-May-22 04:26N 01°17' E 103°56'0 0.0
2015-May-22 03:22N 01°17' E 103°56'0 0.0
2015-May-22 02:28N 01°17' E 103°56'0 0.1
2015-May-22 01:31N 01°17' E 103°56'0 0.0
2015-May-22 00:25N 01°17' E 103°56'0 0.0
2015-May-21 23:28N 01°17' E 103°56'0 0.0
2015-May-21 22:25N 01°17' E 103°56'0 0.1
2015-May-21 21:13N 01°17' E 103°56'0 0.1
2015-May-21 20:31N 01°17' E 103°56'3 3.2
2015-May-21 19:33N 01°16' E 103°59'7 6.6
2015-May-21 18:32N 01°16' E 104°05'9 8.7
2015-May-21 17:32N 01°18' E 104°14'  
2015-May-15 15:03N 22°25' E 119°20'37 9.9
2015-May-15 11:17N 22°58' E 119°39'48 8.1
2015-May-15 05:26N 23°44' E 119°50'20 9.8
2015-May-15 03:25N 24°03' E 119°54'5210.0
2015-May-14 22:17N 24°48' E 120°22'263 9.5
2015-May-13 18:33N 28°46' E 122°29'1510.1
2015-May-13 17:07N 28°59' E 122°36'710.6
2015-May-13 16:27N 29°06' E 122°39'910.3
2015-May-13 15:32N 29°14' E 122°43'10 9.9
2015-May-13 14:33N 29°24' E 122°47'10 9.7
2015-May-13 13:33N 29°32' E 122°51'35 8.2
2015-May-13 09:21N 30°05' E 123°06'15 8.1
2015-May-13 07:27N 30°20' E 123°09'16 8.6
2015-May-13 05:33N 30°36' E 123°12'9 9.5
2015-May-13 04:33N 30°46' E 123°13'10 9.5
2015-May-13 03:32N 30°55' E 123°13'9 9.3
2015-May-13 02:32N 31°05' E 123°13'9 9.1
2015-May-13 01:33N 31°14' E 123°14'9 9.2
2015-May-13 00:33N 31°23' E 123°14'9 8.9
2015-May-12 23:33N 31°32' E 123°14'9 9.1
2015-May-12 22:33N 31°41' E 123°14'9 8.8
2015-May-12 21:33N 31°50' E 123°14'9 9.2
2015-May-12 20:33N 31°59' E 123°15'  

Dump ship's entire track history